sensor_id;sensor_type;location;lat;lon;timestamp;P1;durP1;ratioP1;P2;durP2;ratioP2
34828;SDS011;21042;47.620;12.188;2023-07-30T00:01:30;7.35;;;2.70;;
34828;SDS011;21042;47.620;12.188;2023-07-30T00:03:57;3.17;;;2.25;;
34828;SDS011;21042;47.620;12.188;2023-07-30T00:06:24;6.43;;;3.35;;
34828;SDS011;21042;47.620;12.188;2023-07-30T00:08:51;4.38;;;2.03;;
34828;SDS011;21042;47.620;12.188;2023-07-30T00:11:17;3.08;;;2.15;;
34828;SDS011;21042;47.620;12.188;2023-07-30T00:13:44;5.25;;;2.47;;
34828;SDS011;21042;47.620;12.188;2023-07-30T00:16:11;7.85;;;2.35;;
34828;SDS011;21042;47.620;12.188;2023-07-30T00:18:38;3.92;;;2.60;;
34828;SDS011;21042;47.620;12.188;2023-07-30T00:21:05;3.88;;;2.85;;
34828;SDS011;21042;47.620;12.188;2023-07-30T00:23:31;6.35;;;3.13;;
34828;SDS011;21042;47.620;12.188;2023-07-30T00:25:58;6.38;;;2.55;;
34828;SDS011;21042;47.620;12.188;2023-07-30T00:28:25;5.40;;;2.78;;
34828;SDS011;21042;47.620;12.188;2023-07-30T00:30:52;6.10;;;2.60;;
34828;SDS011;21042;47.620;12.188;2023-07-30T00:33:19;5.65;;;2.30;;
34828;SDS011;21042;47.620;12.188;2023-07-30T00:35:45;4.85;;;2.30;;
34828;SDS011;21042;47.620;12.188;2023-07-30T00:38:12;4.80;;;1.73;;
34828;SDS011;21042;47.620;12.188;2023-07-30T00:40:40;6.13;;;2.25;;
34828;SDS011;21042;47.620;12.188;2023-07-30T00:43:07;3.20;;;2.28;;
34828;SDS011;21042;47.620;12.188;2023-07-30T00:45:34;4.43;;;2.42;;
34828;SDS011;21042;47.620;12.188;2023-07-30T00:48:02;5.10;;;2.50;;
34828;SDS011;21042;47.620;12.188;2023-07-30T00:50:29;5.43;;;2.35;;
34828;SDS011;21042;47.620;12.188;2023-07-30T00:55:23;4.28;;;2.60;;
34828;SDS011;21042;47.620;12.188;2023-07-30T01:00:17;10.65;;;2.70;;
34828;SDS011;21042;47.620;12.188;2023-07-30T01:02:44;10.45;;;2.38;;
34828;SDS011;21042;47.620;12.188;2023-07-30T01:05:11;3.28;;;2.53;;
34828;SDS011;21042;47.620;12.188;2023-07-30T01:07:38;6.28;;;2.20;;
34828;SDS011;21042;47.620;12.188;2023-07-30T01:10:05;6.70;;;2.22;;
34828;SDS011;21042;47.620;12.188;2023-07-30T01:12:32;6.35;;;2.53;;
34828;SDS011;21042;47.620;12.188;2023-07-30T01:15:00;6.72;;;2.60;;
34828;SDS011;21042;47.620;12.188;2023-07-30T01:17:28;4.13;;;2.70;;
34828;SDS011;21042;47.620;12.188;2023-07-30T01:19:55;6.28;;;2.58;;
34828;SDS011;21042;47.620;12.188;2023-07-30T01:22:22;5.30;;;3.00;;
34828;SDS011;21042;47.620;12.188;2023-07-30T01:24:49;6.50;;;2.80;;
34828;SDS011;21042;47.620;12.188;2023-07-30T01:27:19;6.03;;;2.83;;
34828;SDS011;21042;47.620;12.188;2023-07-30T01:29:52;7.43;;;2.25;;
34828;SDS011;21042;47.620;12.188;2023-07-30T01:32:25;5.07;;;2.35;;
34828;SDS011;21042;47.620;12.188;2023-07-30T01:34:55;2.60;;;2.10;;
34828;SDS011;21042;47.620;12.188;2023-07-30T01:37:24;3.35;;;2.00;;
34828;SDS011;21042;47.620;12.188;2023-07-30T01:39:52;5.88;;;2.60;;
34828;SDS011;21042;47.620;12.188;2023-07-30T01:42:19;4.72;;;2.22;;
34828;SDS011;21042;47.620;12.188;2023-07-30T01:44:46;2.88;;;2.08;;
34828;SDS011;21042;47.620;12.188;2023-07-30T01:47:13;5.45;;;2.35;;
34828;SDS011;21042;47.620;12.188;2023-07-30T01:49:40;15.05;;;2.78;;
34828;SDS011;21042;47.620;12.188;2023-07-30T01:52:07;6.60;;;3.17;;
34828;SDS011;21042;47.620;12.188;2023-07-30T01:54:33;4.40;;;2.70;;
34828;SDS011;21042;47.620;12.188;2023-07-30T01:57:00;5.07;;;2.72;;
34828;SDS011;21042;47.620;12.188;2023-07-30T02:01:54;6.13;;;2.50;;
34828;SDS011;21042;47.620;12.188;2023-07-30T02:04:21;3.88;;;2.55;;
34828;SDS011;21042;47.620;12.188;2023-07-30T02:06:48;3.10;;;2.70;;
34828;SDS011;21042;47.620;12.188;2023-07-30T02:09:15;3.00;;;2.40;;
34828;SDS011;21042;47.620;12.188;2023-07-30T02:11:42;6.32;;;2.53;;
34828;SDS011;21042;47.620;12.188;2023-07-30T02:14:09;4.32;;;2.78;;
34828;SDS011;21042;47.620;12.188;2023-07-30T02:16:36;5.47;;;2.70;;
34828;SDS011;21042;47.620;12.188;2023-07-30T02:19:03;4.57;;;3.10;;
34828;SDS011;21042;47.620;12.188;2023-07-30T02:21:30;5.80;;;2.67;;
34828;SDS011;21042;47.620;12.188;2023-07-30T02:23:58;7.40;;;2.28;;
34828;SDS011;21042;47.620;12.188;2023-07-30T02:26:25;4.15;;;2.38;;
34828;SDS011;21042;47.620;12.188;2023-07-30T02:28:52;5.28;;;2.13;;
34828;SDS011;21042;47.620;12.188;2023-07-30T02:31:19;4.03;;;2.40;;
34828;SDS011;21042;47.620;12.188;2023-07-30T02:33:46;3.05;;;2.08;;
34828;SDS011;21042;47.620;12.188;2023-07-30T02:36:13;5.53;;;3.05;;
34828;SDS011;21042;47.620;12.188;2023-07-30T02:38:39;8.00;;;2.70;;
34828;SDS011;21042;47.620;12.188;2023-07-30T02:41:06;4.93;;;3.40;;
34828;SDS011;21042;47.620;12.188;2023-07-30T02:43:33;9.20;;;3.72;;
34828;SDS011;21042;47.620;12.188;2023-07-30T02:46:00;6.05;;;3.78;;
34828;SDS011;21042;47.620;12.188;2023-07-30T02:48:26;4.68;;;3.85;;
34828;SDS011;21042;47.620;12.188;2023-07-30T02:50:53;7.50;;;3.88;;
34828;SDS011;21042;47.620;12.188;2023-07-30T02:53:20;9.90;;;3.78;;
34828;SDS011;21042;47.620;12.188;2023-07-30T02:55:47;4.80;;;3.55;;
34828;SDS011;21042;47.620;12.188;2023-07-30T02:58:14;4.55;;;3.67;;
34828;SDS011;21042;47.620;12.188;2023-07-30T03:00:41;4.25;;;3.45;;
34828;SDS011;21042;47.620;12.188;2023-07-30T03:03:08;4.82;;;3.47;;
34828;SDS011;21042;47.620;12.188;2023-07-30T03:05:35;6.65;;;3.90;;
34828;SDS011;21042;47.620;12.188;2023-07-30T03:08:02;3.70;;;3.17;;
34828;SDS011;21042;47.620;12.188;2023-07-30T03:10:29;7.18;;;3.47;;
34828;SDS011;21042;47.620;12.188;2023-07-30T03:12:56;4.55;;;3.50;;
34828;SDS011;21042;47.620;12.188;2023-07-30T03:15:23;5.50;;;3.95;;
34828;SDS011;21042;47.620;12.188;2023-07-30T03:17:49;3.95;;;3.08;;
34828;SDS011;21042;47.620;12.188;2023-07-30T03:20:16;5.68;;;3.45;;
34828;SDS011;21042;47.620;12.188;2023-07-30T03:22:44;5.25;;;3.58;;
34828;SDS011;21042;47.620;12.188;2023-07-30T03:25:11;5.32;;;3.17;;
34828;SDS011;21042;47.620;12.188;2023-07-30T03:27:37;5.07;;;3.17;;
34828;SDS011;21042;47.620;12.188;2023-07-30T03:30:05;2.80;;;2.50;;
34828;SDS011;21042;47.620;12.188;2023-07-30T03:34:58;5.32;;;3.30;;
34828;SDS011;21042;47.620;12.188;2023-07-30T03:37:25;3.30;;;2.78;;
34828;SDS011;21042;47.620;12.188;2023-07-30T03:42:19;4.13;;;2.45;;
34828;SDS011;21042;47.620;12.188;2023-07-30T03:47:13;5.65;;;2.58;;
34828;SDS011;21042;47.620;12.188;2023-07-30T03:49:40;4.40;;;2.83;;
34828;SDS011;21042;47.620;12.188;2023-07-30T03:52:07;7.40;;;2.70;;
34828;SDS011;21042;47.620;12.188;2023-07-30T03:54:33;7.70;;;3.85;;
34828;SDS011;21042;47.620;12.188;2023-07-30T03:57:00;5.60;;;2.83;;
34828;SDS011;21042;47.620;12.188;2023-07-30T03:59:27;7.15;;;2.83;;
34828;SDS011;21042;47.620;12.188;2023-07-30T04:01:54;3.08;;;2.55;;
34828;SDS011;21042;47.620;12.188;2023-07-30T04:04:21;4.03;;;3.00;;
34828;SDS011;21042;47.620;12.188;2023-07-30T04:06:48;3.60;;;3.08;;
34828;SDS011;21042;47.620;12.188;2023-07-30T04:09:15;4.60;;;3.13;;
34828;SDS011;21042;47.620;12.188;2023-07-30T04:11:42;6.35;;;2.70;;
34828;SDS011;21042;47.620;12.188;2023-07-30T04:14:09;4.40;;;2.78;;
34828;SDS011;21042;47.620;12.188;2023-07-30T04:16:35;7.55;;;3.30;;
34828;SDS011;21042;47.620;12.188;2023-07-30T04:19:02;7.45;;;3.20;;
34828;SDS011;21042;47.620;12.188;2023-07-30T04:21:29;4.68;;;3.42;;
34828;SDS011;21042;47.620;12.188;2023-07-30T04:23:56;7.05;;;3.53;;
34828;SDS011;21042;47.620;12.188;2023-07-30T04:26:22;5.22;;;3.83;;
34828;SDS011;21042;47.620;12.188;2023-07-30T04:28:49;4.70;;;3.70;;
34828;SDS011;21042;47.620;12.188;2023-07-30T04:31:16;5.72;;;3.40;;
34828;SDS011;21042;47.620;12.188;2023-07-30T04:33:43;3.92;;;3.08;;
34828;SDS011;21042;47.620;12.188;2023-07-30T04:36:10;3.80;;;2.55;;
34828;SDS011;21042;47.620;12.188;2023-07-30T04:38:37;6.28;;;2.97;;
34828;SDS011;21042;47.620;12.188;2023-07-30T04:41:04;4.53;;;3.33;;
34828;SDS011;21042;47.620;12.188;2023-07-30T04:43:37;7.00;;;3.20;;
34828;SDS011;21042;47.620;12.188;2023-07-30T04:46:04;4.35;;;3.33;;
34828;SDS011;21042;47.620;12.188;2023-07-30T04:48:31;5.30;;;3.28;;
34828;SDS011;21042;47.620;12.188;2023-07-30T04:50:58;6.88;;;3.33;;
34828;SDS011;21042;47.620;12.188;2023-07-30T04:53:24;4.72;;;2.90;;
34828;SDS011;21042;47.620;12.188;2023-07-30T04:55:58;4.28;;;2.60;;
34828;SDS011;21042;47.620;12.188;2023-07-30T04:58:25;8.80;;;2.53;;
34828;SDS011;21042;47.620;12.188;2023-07-30T05:00:52;4.63;;;2.53;;
34828;SDS011;21042;47.620;12.188;2023-07-30T05:03:19;6.72;;;2.30;;
34828;SDS011;21042;47.620;12.188;2023-07-30T05:05:46;3.90;;;2.60;;
34828;SDS011;21042;47.620;12.188;2023-07-30T05:08:12;5.13;;;2.20;;
34828;SDS011;21042;47.620;12.188;2023-07-30T05:10:39;4.15;;;2.40;;
34828;SDS011;21042;47.620;12.188;2023-07-30T05:13:06;4.47;;;2.65;;
34828;SDS011;21042;47.620;12.188;2023-07-30T05:15:35;5.05;;;2.65;;
34828;SDS011;21042;47.620;12.188;2023-07-30T05:18:02;4.22;;;2.40;;
34828;SDS011;21042;47.620;12.188;2023-07-30T05:20:28;5.80;;;2.15;;
34828;SDS011;21042;47.620;12.188;2023-07-30T05:22:55;3.92;;;2.17;;
34828;SDS011;21042;47.620;12.188;2023-07-30T05:25:22;7.90;;;2.60;;
34828;SDS011;21042;47.620;12.188;2023-07-30T05:27:49;4.47;;;2.22;;
34828;SDS011;21042;47.620;12.188;2023-07-30T05:30:16;3.85;;;2.17;;
34828;SDS011;21042;47.620;12.188;2023-07-30T05:32:42;4.22;;;2.35;;
34828;SDS011;21042;47.620;12.188;2023-07-30T05:35:09;3.97;;;2.92;;
34828;SDS011;21042;47.620;12.188;2023-07-30T05:37:36;2.70;;;2.22;;
34828;SDS011;21042;47.620;12.188;2023-07-30T05:40:03;3.08;;;2.33;;
34828;SDS011;21042;47.620;12.188;2023-07-30T05:42:30;6.05;;;2.38;;
34828;SDS011;21042;47.620;12.188;2023-07-30T05:44:57;5.38;;;2.25;;
34828;SDS011;21042;47.620;12.188;2023-07-30T05:47:24;4.72;;;2.25;;
34828;SDS011;21042;47.620;12.188;2023-07-30T05:49:51;11.43;;;2.90;;
34828;SDS011;21042;47.620;12.188;2023-07-30T05:52:17;4.47;;;2.50;;
34828;SDS011;21042;47.620;12.188;2023-07-30T05:54:44;5.85;;;2.33;;
34828;SDS011;21042;47.620;12.188;2023-07-30T05:57:11;4.88;;;2.30;;
34828;SDS011;21042;47.620;12.188;2023-07-30T05:59:37;4.45;;;2.50;;
34828;SDS011;21042;47.620;12.188;2023-07-30T06:02:04;3.33;;;2.53;;
34828;SDS011;21042;47.620;12.188;2023-07-30T06:04:31;7.68;;;3.00;;
34828;SDS011;21042;47.620;12.188;2023-07-30T06:07:04;4.53;;;2.58;;
34828;SDS011;21042;47.620;12.188;2023-07-30T06:09:31;3.95;;;2.83;;
34828;SDS011;21042;47.620;12.188;2023-07-30T06:11:58;4.60;;;2.70;;
34828;SDS011;21042;47.620;12.188;2023-07-30T06:14:25;4.75;;;2.70;;
34828;SDS011;21042;47.620;12.188;2023-07-30T06:16:53;3.55;;;2.63;;
34828;SDS011;21042;47.620;12.188;2023-07-30T06:21:47;3.97;;;2.58;;
34828;SDS011;21042;47.620;12.188;2023-07-30T06:24:13;6.88;;;2.90;;
34828;SDS011;21042;47.620;12.188;2023-07-30T06:26:40;3.35;;;2.90;;
34828;SDS011;21042;47.620;12.188;2023-07-30T06:29:07;3.47;;;2.53;;
34828;SDS011;21042;47.620;12.188;2023-07-30T06:31:34;6.15;;;3.03;;
34828;SDS011;21042;47.620;12.188;2023-07-30T06:34:01;5.00;;;2.50;;
34828;SDS011;21042;47.620;12.188;2023-07-30T06:36:28;7.40;;;3.33;;
34828;SDS011;21042;47.620;12.188;2023-07-30T06:38:55;4.90;;;2.78;;
34828;SDS011;21042;47.620;12.188;2023-07-30T06:41:21;2.65;;;2.33;;
34828;SDS011;21042;47.620;12.188;2023-07-30T06:43:48;6.60;;;2.28;;
34828;SDS011;21042;47.620;12.188;2023-07-30T06:46:15;3.63;;;2.25;;
34828;SDS011;21042;47.620;12.188;2023-07-30T06:48:42;2.70;;;2.10;;
34828;SDS011;21042;47.620;12.188;2023-07-30T06:51:09;4.75;;;2.22;;
34828;SDS011;21042;47.620;12.188;2023-07-30T06:53:39;3.47;;;2.22;;
34828;SDS011;21042;47.620;12.188;2023-07-30T06:56:05;6.85;;;2.17;;
34828;SDS011;21042;47.620;12.188;2023-07-30T06:58:32;3.65;;;2.45;;
34828;SDS011;21042;47.620;12.188;2023-07-30T07:00:59;2.97;;;2.08;;
34828;SDS011;21042;47.620;12.188;2023-07-30T07:03:26;3.78;;;2.20;;
34828;SDS011;21042;47.620;12.188;2023-07-30T07:05:53;3.83;;;2.42;;
34828;SDS011;21042;47.620;12.188;2023-07-30T07:08:21;2.95;;;2.40;;
34828;SDS011;21042;47.620;12.188;2023-07-30T07:13:15;3.05;;;2.00;;
34828;SDS011;21042;47.620;12.188;2023-07-30T07:15:43;3.75;;;2.45;;
34828;SDS011;21042;47.620;12.188;2023-07-30T07:18:10;4.35;;;2.65;;
34828;SDS011;21042;47.620;12.188;2023-07-30T07:20:37;4.28;;;2.80;;
34828;SDS011;21042;47.620;12.188;2023-07-30T07:23:04;5.35;;;2.75;;
34828;SDS011;21042;47.620;12.188;2023-07-30T07:25:31;5.25;;;2.67;;
34828;SDS011;21042;47.620;12.188;2023-07-30T07:27:58;3.83;;;2.05;;
34828;SDS011;21042;47.620;12.188;2023-07-30T07:30:24;4.80;;;2.92;;
34828;SDS011;21042;47.620;12.188;2023-07-30T07:32:52;5.20;;;2.35;;
34828;SDS011;21042;47.620;12.188;2023-07-30T07:35:19;7.25;;;2.22;;
34828;SDS011;21042;47.620;12.188;2023-07-30T07:37:46;2.78;;;2.13;;
34828;SDS011;21042;47.620;12.188;2023-07-30T07:40:13;3.13;;;1.83;;
34828;SDS011;21042;47.620;12.188;2023-07-30T07:42:40;4.70;;;1.85;;
34828;SDS011;21042;47.620;12.188;2023-07-30T07:45:07;1.88;;;1.75;;
34828;SDS011;21042;47.620;12.188;2023-07-30T07:47:34;4.80;;;2.05;;
34828;SDS011;21042;47.620;12.188;2023-07-30T07:50:01;2.90;;;1.80;;
34828;SDS011;21042;47.620;12.188;2023-07-30T07:52:28;2.22;;;1.73;;
34828;SDS011;21042;47.620;12.188;2023-07-30T07:54:55;2.47;;;1.83;;
34828;SDS011;21042;47.620;12.188;2023-07-30T07:57:21;1.77;;;1.60;;
34828;SDS011;21042;47.620;12.188;2023-07-30T07:59:48;2.80;;;1.90;;
34828;SDS011;21042;47.620;12.188;2023-07-30T08:02:15;3.95;;;1.98;;
34828;SDS011;21042;47.620;12.188;2023-07-30T08:04:42;2.60;;;1.73;;
34828;SDS011;21042;47.620;12.188;2023-07-30T08:07:09;3.28;;;1.92;;
34828;SDS011;21042;47.620;12.188;2023-07-30T08:09:35;4.82;;;2.55;;
34828;SDS011;21042;47.620;12.188;2023-07-30T08:12:02;5.05;;;2.70;;
34828;SDS011;21042;47.620;12.188;2023-07-30T08:16:57;4.17;;;2.13;;
34828;SDS011;21042;47.620;12.188;2023-07-30T08:19:24;2.25;;;2.00;;
34828;SDS011;21042;47.620;12.188;2023-07-30T08:21:52;6.00;;;2.45;;
34828;SDS011;21042;47.620;12.188;2023-07-30T08:24:19;5.05;;;2.20;;
34828;SDS011;21042;47.620;12.188;2023-07-30T08:26:46;4.35;;;2.05;;
34828;SDS011;21042;47.620;12.188;2023-07-30T08:29:13;4.22;;;1.98;;
34828;SDS011;21042;47.620;12.188;2023-07-30T08:31:40;3.53;;;2.40;;
34828;SDS011;21042;47.620;12.188;2023-07-30T08:34:07;6.28;;;2.22;;
34828;SDS011;21042;47.620;12.188;2023-07-30T08:36:34;4.80;;;2.05;;
34828;SDS011;21042;47.620;12.188;2023-07-30T08:39:02;4.90;;;2.10;;
34828;SDS011;21042;47.620;12.188;2023-07-30T08:41:30;2.40;;;1.67;;
34828;SDS011;21042;47.620;12.188;2023-07-30T08:43:57;4.68;;;1.90;;
34828;SDS011;21042;47.620;12.188;2023-07-30T08:46:24;4.32;;;2.38;;
34828;SDS011;21042;47.620;12.188;2023-07-30T08:48:51;5.88;;;2.50;;
34828;SDS011;21042;47.620;12.188;2023-07-30T08:51:18;3.47;;;2.60;;
34828;SDS011;21042;47.620;12.188;2023-07-30T08:53:45;4.38;;;2.22;;
34828;SDS011;21042;47.620;12.188;2023-07-30T08:56:13;11.05;;;2.30;;
34828;SDS011;21042;47.620;12.188;2023-07-30T08:58:41;2.20;;;2.00;;
34828;SDS011;21042;47.620;12.188;2023-07-30T09:01:09;2.83;;;2.40;;
34828;SDS011;21042;47.620;12.188;2023-07-30T09:03:39;3.10;;;1.90;;
34828;SDS011;21042;47.620;12.188;2023-07-30T09:06:06;4.15;;;2.08;;
34828;SDS011;21042;47.620;12.188;2023-07-30T09:08:34;5.30;;;2.15;;
34828;SDS011;21042;47.620;12.188;2023-07-30T09:11:07;3.00;;;2.08;;
34828;SDS011;21042;47.620;12.188;2023-07-30T09:13:38;2.90;;;2.03;;
34828;SDS011;21042;47.620;12.188;2023-07-30T09:16:09;2.55;;;2.00;;
34828;SDS011;21042;47.620;12.188;2023-07-30T09:18:46;3.13;;;2.15;;
34828;SDS011;21042;47.620;12.188;2023-07-30T09:21:17;2.30;;;1.90;;
34828;SDS011;21042;47.620;12.188;2023-07-30T09:23:47;2.50;;;1.75;;
34828;SDS011;21042;47.620;12.188;2023-07-30T09:26:14;3.45;;;2.08;;
34828;SDS011;21042;47.620;12.188;2023-07-30T09:28:40;3.65;;;2.00;;
34828;SDS011;21042;47.620;12.188;2023-07-30T09:31:08;2.47;;;2.28;;
34828;SDS011;21042;47.620;12.188;2023-07-30T09:33:47;3.95;;;2.25;;
34828;SDS011;21042;47.620;12.188;2023-07-30T09:38:42;3.95;;;2.40;;
34828;SDS011;21042;47.620;12.188;2023-07-30T09:41:10;2.80;;;2.20;;
34828;SDS011;21042;47.620;12.188;2023-07-30T09:43:38;4.05;;;2.40;;
34828;SDS011;21042;47.620;12.188;2023-07-30T09:46:06;3.78;;;2.22;;
34828;SDS011;21042;47.620;12.188;2023-07-30T09:48:33;4.53;;;2.55;;
34828;SDS011;21042;47.620;12.188;2023-07-30T09:51:01;5.63;;;2.13;;
34828;SDS011;21042;47.620;12.188;2023-07-30T09:53:30;3.65;;;2.20;;
34828;SDS011;21042;47.620;12.188;2023-07-30T09:56:04;3.85;;;2.13;;
34828;SDS011;21042;47.620;12.188;2023-07-30T09:58:33;1.80;;;1.65;;
34828;SDS011;21042;47.620;12.188;2023-07-30T10:01:04;3.83;;;1.63;;
34828;SDS011;21042;47.620;12.188;2023-07-30T10:03:32;2.22;;;1.58;;
34828;SDS011;21042;47.620;12.188;2023-07-30T10:06:02;2.53;;;1.77;;
34828;SDS011;21042;47.620;12.188;2023-07-30T10:08:31;1.40;;;1.30;;
34828;SDS011;21042;47.620;12.188;2023-07-30T10:11:04;2.00;;;1.40;;
34828;SDS011;21042;47.620;12.188;2023-07-30T10:13:33;1.50;;;1.35;;
34828;SDS011;21042;47.620;12.188;2023-07-30T10:16:02;4.25;;;1.20;;
34828;SDS011;21042;47.620;12.188;2023-07-30T10:18:41;2.58;;;1.60;;
34828;SDS011;21042;47.620;12.188;2023-07-30T10:21:10;3.55;;;1.48;;
34828;SDS011;21042;47.620;12.188;2023-07-30T10:26:33;2.03;;;1.60;;
34828;SDS011;21042;47.620;12.188;2023-07-30T10:29:11;4.18;;;1.60;;
34828;SDS011;21042;47.620;12.188;2023-07-30T10:31:48;2.08;;;1.38;;
34828;SDS011;21042;47.620;12.188;2023-07-30T10:34:20;2.55;;;1.95;;
34828;SDS011;21042;47.620;12.188;2023-07-30T10:36:50;4.28;;;1.80;;
34828;SDS011;21042;47.620;12.188;2023-07-30T10:39:25;2.25;;;1.90;;
34828;SDS011;21042;47.620;12.188;2023-07-30T10:41:57;3.05;;;2.47;;
34828;SDS011;21042;47.620;12.188;2023-07-30T10:47:00;2.65;;;2.10;;
34828;SDS011;21042;47.620;12.188;2023-07-30T10:49:28;4.07;;;1.90;;
34828;SDS011;21042;47.620;12.188;2023-07-30T10:51:56;2.58;;;1.58;;
34828;SDS011;21042;47.620;12.188;2023-07-30T10:54:23;2.05;;;1.85;;
34828;SDS011;21042;47.620;12.188;2023-07-30T10:56:50;1.73;;;1.33;;
34828;SDS011;21042;47.620;12.188;2023-07-30T10:59:18;1.92;;;1.33;;
34828;SDS011;21042;47.620;12.188;2023-07-30T11:01:46;1.77;;;1.40;;
34828;SDS011;21042;47.620;12.188;2023-07-30T11:04:19;4.78;;;1.75;;
34828;SDS011;21042;47.620;12.188;2023-07-30T11:06:47;2.55;;;1.42;;
34828;SDS011;21042;47.620;12.188;2023-07-30T11:09:26;2.35;;;1.55;;
34828;SDS011;21042;47.620;12.188;2023-07-30T11:11:54;1.80;;;1.33;;
34828;SDS011;21042;47.620;12.188;2023-07-30T11:14:22;1.67;;;1.10;;
34828;SDS011;21042;47.620;12.188;2023-07-30T11:16:57;1.73;;;1.23;;
34828;SDS011;21042;47.620;12.188;2023-07-30T11:19:25;1.75;;;1.20;;
34828;SDS011;21042;47.620;12.188;2023-07-30T11:21:54;1.92;;;1.42;;
34828;SDS011;21042;47.620;12.188;2023-07-30T11:24:33;2.33;;;1.48;;
34828;SDS011;21042;47.620;12.188;2023-07-30T11:27:00;2.40;;;1.50;;
34828;SDS011;21042;47.620;12.188;2023-07-30T11:29:28;4.72;;;1.50;;
34828;SDS011;21042;47.620;12.188;2023-07-30T11:31:58;3.10;;;1.60;;
34828;SDS011;21042;47.620;12.188;2023-07-30T11:34:26;1.67;;;1.30;;
34828;SDS011;21042;47.620;12.188;2023-07-30T11:36:54;2.05;;;1.40;;
34828;SDS011;21042;47.620;12.188;2023-07-30T11:39:22;1.50;;;1.35;;
34828;SDS011;21042;47.620;12.188;2023-07-30T11:41:50;3.33;;;1.60;;
34828;SDS011;21042;47.620;12.188;2023-07-30T11:44:35;1.67;;;1.58;;
34828;SDS011;21042;47.620;12.188;2023-07-30T11:47:06;1.48;;;1.38;;
34828;SDS011;21042;47.620;12.188;2023-07-30T11:49:35;1.73;;;1.50;;
34828;SDS011;21042;47.620;12.188;2023-07-30T11:52:08;1.67;;;1.58;;
34828;SDS011;21042;47.620;12.188;2023-07-30T11:54:36;1.80;;;1.50;;
34828;SDS011;21042;47.620;12.188;2023-07-30T11:57:03;1.90;;;1.30;;
34828;SDS011;21042;47.620;12.188;2023-07-30T11:59:30;1.95;;;1.50;;
34828;SDS011;21042;47.620;12.188;2023-07-30T12:01:58;2.20;;;1.65;;
34828;SDS011;21042;47.620;12.188;2023-07-30T12:04:25;1.83;;;1.60;;
34828;SDS011;21042;47.620;12.188;2023-07-30T12:06:57;1.63;;;1.30;;
34828;SDS011;21042;47.620;12.188;2023-07-30T12:09:24;1.83;;;1.55;;
34828;SDS011;21042;47.620;12.188;2023-07-30T12:12:00;1.63;;;1.52;;
34828;SDS011;21042;47.620;12.188;2023-07-30T12:14:28;2.22;;;1.48;;
34828;SDS011;21042;47.620;12.188;2023-07-30T12:17:09;2.15;;;1.30;;
34828;SDS011;21042;47.620;12.188;2023-07-30T12:19:35;1.55;;;1.30;;
34828;SDS011;21042;47.620;12.188;2023-07-30T12:22:02;1.95;;;1.30;;
34828;SDS011;21042;47.620;12.188;2023-07-30T12:24:29;1.50;;;1.40;;
34828;SDS011;21042;47.620;12.188;2023-07-30T12:26:56;1.10;;;1.02;;
34828;SDS011;21042;47.620;12.188;2023-07-30T12:31:50;1.70;;;1.25;;
34828;SDS011;21042;47.620;12.188;2023-07-30T12:34:20;1.20;;;1.00;;
34828;SDS011;21042;47.620;12.188;2023-07-30T12:36:48;1.20;;;1.10;;
34828;SDS011;21042;47.620;12.188;2023-07-30T12:39:15;1.10;;;1.00;;
34828;SDS011;21042;47.620;12.188;2023-07-30T12:41:42;1.70;;;1.30;;
34828;SDS011;21042;47.620;12.188;2023-07-30T12:44:09;1.33;;;1.20;;
34828;SDS011;21042;47.620;12.188;2023-07-30T12:49:02;5.45;;;1.38;;
34828;SDS011;21042;47.620;12.188;2023-07-30T12:51:31;1.35;;;0.93;;
34828;SDS011;21042;47.620;12.188;2023-07-30T12:53:58;2.55;;;1.27;;
34828;SDS011;21042;47.620;12.188;2023-07-30T12:56:25;1.45;;;1.35;;
34828;SDS011;21042;47.620;12.188;2023-07-30T12:58:52;1.63;;;1.23;;
34828;SDS011;21042;47.620;12.188;2023-07-30T13:01:19;3.22;;;1.40;;
34828;SDS011;21042;47.620;12.188;2023-07-30T13:06:14;1.95;;;1.23;;
34828;SDS011;21042;47.620;12.188;2023-07-30T13:08:41;1.40;;;1.30;;
34828;SDS011;21042;47.620;12.188;2023-07-30T13:11:08;3.08;;;1.35;;
34828;SDS011;21042;47.620;12.188;2023-07-30T13:13:35;1.95;;;1.45;;
34828;SDS011;21042;47.620;12.188;2023-07-30T13:16:02;2.75;;;1.33;;
34828;SDS011;21042;47.620;12.188;2023-07-30T13:18:29;4.20;;;1.10;;
34828;SDS011;21042;47.620;12.188;2023-07-30T13:23:22;1.55;;;1.10;;
34828;SDS011;21042;47.620;12.188;2023-07-30T13:25:52;2.20;;;1.42;;
34828;SDS011;21042;47.620;12.188;2023-07-30T13:28:19;4.15;;;1.40;;
34828;SDS011;21042;47.620;12.188;2023-07-30T13:30:46;2.38;;;1.23;;
34828;SDS011;21042;47.620;12.188;2023-07-30T13:33:13;2.03;;;1.60;;
34828;SDS011;21042;47.620;12.188;2023-07-30T13:35:40;2.53;;;1.30;;
34828;SDS011;21042;47.620;12.188;2023-07-30T13:38:06;1.40;;;1.30;;
34828;SDS011;21042;47.620;12.188;2023-07-30T13:40:33;2.88;;;1.45;;
34828;SDS011;21042;47.620;12.188;2023-07-30T13:43:00;1.50;;;1.13;;
34828;SDS011;21042;47.620;12.188;2023-07-30T13:45:26;1.40;;;1.27;;
34828;SDS011;21042;47.620;12.188;2023-07-30T13:47:54;3.15;;;1.48;;
34828;SDS011;21042;47.620;12.188;2023-07-30T13:52:48;1.48;;;1.38;;
34828;SDS011;21042;47.620;12.188;2023-07-30T13:55:14;2.30;;;1.40;;
34828;SDS011;21042;47.620;12.188;2023-07-30T13:57:42;1.92;;;1.40;;
34828;SDS011;21042;47.620;12.188;2023-07-30T14:00:09;1.90;;;1.52;;
34828;SDS011;21042;47.620;12.188;2023-07-30T14:02:36;1.92;;;1.40;;
34828;SDS011;21042;47.620;12.188;2023-07-30T14:05:03;1.95;;;1.48;;
34828;SDS011;21042;47.620;12.188;2023-07-30T14:07:30;2.30;;;1.30;;
34828;SDS011;21042;47.620;12.188;2023-07-30T14:09:57;3.17;;;1.60;;
34828;SDS011;21042;47.620;12.188;2023-07-30T14:12:24;2.75;;;1.50;;
34828;SDS011;21042;47.620;12.188;2023-07-30T14:14:51;1.98;;;1.55;;
34828;SDS011;21042;47.620;12.188;2023-07-30T14:17:17;1.58;;;1.33;;
34828;SDS011;21042;47.620;12.188;2023-07-30T14:19:44;3.95;;;1.45;;
34828;SDS011;21042;47.620;12.188;2023-07-30T14:22:11;1.65;;;1.30;;
34828;SDS011;21042;47.620;12.188;2023-07-30T14:24:38;1.17;;;0.98;;
34828;SDS011;21042;47.620;12.188;2023-07-30T14:27:06;1.23;;;1.00;;
34828;SDS011;21042;47.620;12.188;2023-07-30T14:29:35;1.00;;;0.90;;
34828;SDS011;21042;47.620;12.188;2023-07-30T14:32:02;1.58;;;1.13;;
34828;SDS011;21042;47.620;12.188;2023-07-30T14:34:29;1.52;;;1.08;;
34828;SDS011;21042;47.620;12.188;2023-07-30T14:36:55;1.48;;;1.17;;
34828;SDS011;21042;47.620;12.188;2023-07-30T14:39:22;1.77;;;0.95;;
34828;SDS011;21042;47.620;12.188;2023-07-30T14:41:49;1.17;;;0.93;;
34828;SDS011;21042;47.620;12.188;2023-07-30T14:44:16;1.90;;;1.20;;
34828;SDS011;21042;47.620;12.188;2023-07-30T14:46:44;2.58;;;1.70;;
34828;SDS011;21042;47.620;12.188;2023-07-30T14:49:11;3.05;;;1.30;;
34828;SDS011;21042;47.620;12.188;2023-07-30T14:54:05;3.00;;;1.00;;
34828;SDS011;21042;47.620;12.188;2023-07-30T14:56:31;1.88;;;1.20;;
34828;SDS011;21042;47.620;12.188;2023-07-30T14:58:58;1.73;;;1.27;;
34828;SDS011;21042;47.620;12.188;2023-07-30T15:01:27;2.97;;;1.17;;
34828;SDS011;21042;47.620;12.188;2023-07-30T15:03:55;1.70;;;1.15;;
34828;SDS011;21042;47.620;12.188;2023-07-30T15:06:23;2.55;;;1.15;;
34828;SDS011;21042;47.620;12.188;2023-07-30T15:08:52;1.40;;;1.30;;
34828;SDS011;21042;47.620;12.188;2023-07-30T15:11:19;3.58;;;1.60;;
34828;SDS011;21042;47.620;12.188;2023-07-30T15:13:45;1.40;;;1.20;;
34828;SDS011;21042;47.620;12.188;2023-07-30T15:16:12;2.13;;;1.30;;
34828;SDS011;21042;47.620;12.188;2023-07-30T15:18:41;2.15;;;1.40;;
34828;SDS011;21042;47.620;12.188;2023-07-30T15:21:14;2.30;;;1.10;;